createdAt,value
2018-09-18T00:01:25.916Z,21.20
2018-09-18T00:06:29.465Z,21.20
2018-09-18T00:11:32.858Z,21.20
2018-09-18T00:16:36.237Z,21.30
2018-09-18T00:21:39.737Z,21.30
2018-09-18T00:26:43.031Z,21.30
2018-09-18T00:31:46.440Z,21.30
2018-09-18T00:36:50.231Z,21.20
2018-09-18T00:41:53.602Z,21.20
2018-09-18T00:46:56.992Z,21.20
2018-09-18T00:52:00.377Z,21.20
2018-09-18T00:57:03.819Z,21.20
2018-09-18T01:02:07.204Z,21.20
2018-09-18T01:07:10.611Z,21.10
2018-09-18T01:12:13.871Z,21.30
2018-09-18T01:17:17.255Z,21.20
2018-09-18T01:22:20.808Z,21.30
2018-09-18T01:27:24.049Z,21.30
2018-09-18T01:32:27.347Z,21.20
2018-09-18T01:37:30.669Z,21.20
2018-09-18T01:42:34.011Z,21.10
2018-09-18T01:47:37.280Z,21.30
2018-09-18T01:52:41.033Z,21.30
2018-09-18T01:57:44.407Z,21.40
2018-09-18T02:02:47.770Z,21.60
2018-09-18T02:07:51.967Z,21.80
2018-09-18T02:12:55.745Z,21.70
2018-09-18T02:17:59.467Z,21.60
2018-09-18T02:23:03.306Z,21.50
2018-09-18T02:28:06.869Z,21.30
2018-09-18T02:33:10.327Z,21.30
2018-09-18T02:38:14.063Z,21.20
2018-09-18T02:43:17.680Z,21.20
2018-09-18T02:48:21.429Z,21.20
2018-09-18T02:53:24.753Z,21.30
2018-09-18T02:58:28.254Z,21.20
2018-09-18T03:03:31.471Z,21.20
2018-09-18T03:08:34.861Z,21.00
2018-09-18T03:13:38.221Z,20.80
2018-09-18T03:18:41.641Z,20.80
2018-09-18T03:23:44.987Z,20.80
2018-09-18T03:28:48.189Z,20.90
2018-09-18T03:33:51.446Z,20.90
2018-09-18T03:38:54.789Z,21.00
2018-09-18T03:43:58.220Z,21.10
2018-09-18T03:49:01.467Z,21.20
2018-09-18T03:54:04.716Z,21.20
2018-09-18T03:59:08.368Z,21.20
2018-09-18T04:04:12.016Z,21.20
2018-09-18T04:09:15.318Z,21.40
2018-09-18T04:14:19.156Z,21.30
2018-09-18T04:19:22.454Z,21.30
2018-09-18T04:24:25.756Z,21.60
2018-09-18T04:29:29.115Z,21.80
2018-09-18T04:34:32.405Z,21.90
2018-09-18T04:39:35.811Z,21.90
2018-09-18T04:44:39.513Z,21.90
2018-09-18T04:49:42.801Z,22.10
2018-09-18T04:54:46.283Z,22.30
2018-09-18T04:59:49.588Z,22.20
2018-09-18T05:04:52.822Z,22.20
2018-09-18T05:09:56.213Z,22.40
2018-09-18T05:14:59.587Z,22.50
2018-09-18T05:20:02.881Z,22.60
2018-09-18T05:25:06.487Z,22.70
2018-09-18T05:30:09.867Z,22.80
2018-09-18T05:35:13.120Z,22.90
2018-09-18T05:40:16.949Z,23.20
2018-09-18T05:45:20.158Z,23.20
2018-09-18T05:50:23.700Z,23.20
2018-09-18T05:55:27.005Z,23.40
2018-09-18T06:00:30.758Z,23.40
2018-09-18T06:05:34.158Z,23.50
2018-09-18T06:10:37.820Z,23.50
2018-09-18T06:15:41.185Z,23.40
2018-09-18T06:20:44.737Z,23.30
2018-09-18T06:25:48.408Z,22.90
2018-09-18T06:30:52.139Z,22.60
2018-09-18T06:35:55.983Z,22.60
2018-09-18T06:40:59.249Z,22.70
2018-09-18T06:46:02.773Z,22.50
2018-09-18T06:51:06.264Z,22.40
2018-09-18T06:56:09.990Z,21.80
2018-09-18T07:01:13.243Z,21.60
2018-09-18T07:06:16.836Z,21.60
2018-09-18T07:11:20.296Z,21.60
2018-09-18T07:16:23.742Z,21.60
2018-09-18T07:21:27.312Z,21.60
2018-09-18T07:26:30.585Z,21.60
2018-09-18T07:31:34.263Z,21.70
2018-09-18T07:36:37.686Z,21.80
2018-09-18T07:41:41.019Z,21.70
2018-09-18T07:46:44.492Z,21.60
2018-09-18T07:51:48.092Z,21.30
2018-09-18T07:56:51.744Z,21.10
2018-09-18T08:01:54.944Z,20.90
2018-09-18T08:06:58.347Z,20.70
2018-09-18T08:12:02.552Z,20.90
2018-09-18T08:17:05.933Z,21.20
2018-09-18T08:22:09.426Z,21.30
2018-09-18T08:27:12.668Z,21.50
2018-09-18T08:32:16.119Z,21.50
2018-09-18T08:37:19.529Z,21.50
2018-09-18T08:42:22.869Z,21.60
2018-09-18T08:47:26.191Z,21.90
2018-09-18T08:52:29.507Z,22.30
2018-09-18T08:57:32.929Z,22.60
2018-09-18T09:02:36.323Z,22.70
2018-09-18T09:07:39.706Z,23.20
2018-09-18T09:12:43.558Z,23.40
2018-09-18T09:17:46.973Z,23.40
2018-09-18T09:22:50.540Z,23.70
2018-09-18T09:27:53.951Z,23.70
2018-09-18T09:32:57.277Z,23.90
2018-09-18T09:38:00.698Z,24.00
2018-09-18T09:43:04.155Z,24.00
2018-09-18T09:48:07.495Z,24.10
2018-09-18T09:53:10.745Z,24.10
2018-09-18T09:58:13.989Z,24.20
2018-09-18T10:03:17.349Z,24.60
2018-09-18T10:08:20.712Z,25.00
2018-09-18T10:13:24.059Z,25.40
2018-09-18T10:18:27.369Z,25.80
2018-09-18T10:23:30.963Z,26.10
2018-09-18T10:28:34.495Z,26.40
2018-09-18T10:33:37.746Z,26.30
2018-09-18T10:38:41.184Z,26.60
2018-09-18T10:43:44.438Z,27.00
2018-09-18T10:48:49.776Z,27.10
2018-09-18T10:53:53.419Z,27.10
2018-09-18T10:58:56.673Z,27.10
2018-09-18T11:04:00.096Z,27.00
2018-09-18T11:09:04.381Z,26.90
2018-09-18T11:14:08.064Z,26.60
2018-09-18T11:19:14.309Z,26.20
2018-09-18T11:24:18.704Z,26.20
2018-09-18T11:29:22.132Z,26.30
2018-09-18T11:34:25.506Z,27.40
2018-09-18T11:39:28.801Z,27.60
2018-09-18T11:44:32.126Z,28.00
2018-09-18T11:49:35.434Z,28.00
2018-09-18T11:54:38.899Z,27.80
2018-09-18T11:59:42.272Z,27.20
2018-09-18T12:04:46.124Z,27.20
2018-09-18T12:09:49.666Z,27.00
2018-09-18T12:14:53.273Z,27.00
2018-09-18T12:19:56.651Z,26.80
2018-09-18T12:24:59.989Z,26.80
2018-09-18T12:30:03.487Z,27.30
2018-09-18T12:35:07.021Z,27.50
2018-09-18T12:40:10.297Z,27.40
2018-09-18T12:45:13.608Z,27.10
2018-09-18T12:50:17.125Z,27.00
2018-09-18T12:55:20.346Z,27.40
2018-09-18T13:00:23.898Z,27.80
2018-09-18T13:05:27.159Z,28.80
2018-09-18T13:10:30.570Z,30.00
2018-09-18T13:15:34.722Z,29.70
2018-09-18T13:20:38.021Z,30.10
2018-09-18T13:25:41.369Z,28.90
2018-09-18T13:30:45.108Z,28.10
2018-09-18T13:35:48.451Z,27.50
2018-09-18T13:40:51.831Z,27.40
2018-09-18T13:45:55.228Z,27.50
2018-09-18T13:50:58.535Z,27.30
2018-09-18T13:56:01.964Z,27.30
2018-09-18T14:01:05.559Z,27.20
2018-09-18T14:06:09.090Z,27.10
2018-09-18T14:11:12.453Z,27.00
2018-09-18T14:16:15.930Z,27.20
2018-09-18T14:21:19.262Z,27.30
2018-09-18T14:26:22.561Z,27.10
2018-09-18T14:31:32.807Z,27.20
2018-09-18T14:36:36.168Z,27.40
2018-09-18T14:41:39.987Z,27.60
2018-09-18T14:46:43.365Z,27.70
2018-09-18T14:51:46.792Z,27.50
2018-09-18T14:56:50.305Z,27.80
2018-09-18T15:01:53.673Z,27.80
2018-09-18T15:06:57.003Z,27.50
2018-09-18T15:12:00.496Z,27.10
2018-09-18T15:17:04.100Z,27.00
2018-09-18T15:22:07.591Z,27.10
2018-09-18T15:27:11.367Z,27.00
2018-09-18T15:32:14.941Z,27.00
2018-09-18T15:37:18.296Z,26.90
2018-09-18T15:42:21.577Z,26.80
2018-09-18T15:47:24.869Z,26.70
2018-09-18T15:52:28.139Z,27.00
2018-09-18T15:57:31.502Z,27.00
2018-09-18T16:02:35.028Z,26.80
2018-09-18T16:07:40.065Z,26.80
2018-09-18T16:12:44.984Z,26.50
2018-09-18T16:17:48.348Z,26.20
2018-09-18T16:22:51.896Z,26.10
2018-09-18T16:27:55.218Z,26.00
2018-09-18T16:32:58.585Z,26.10
2018-09-18T16:38:02.064Z,26.00
2018-09-18T16:43:05.423Z,26.00
2018-09-18T16:48:08.958Z,25.90
2018-09-18T16:53:12.430Z,26.10
2018-09-18T16:58:16.232Z,26.20
2018-09-18T17:03:19.615Z,26.10
2018-09-18T17:08:22.960Z,26.30
2018-09-18T17:13:26.249Z,26.10
2018-09-18T17:18:30.049Z,26.10
2018-09-18T17:23:33.343Z,25.90
2018-09-18T17:28:36.823Z,25.60
2018-09-18T17:33:40.083Z,25.60
2018-09-18T17:38:43.507Z,25.40
2018-09-18T17:43:46.896Z,25.30
2018-09-18T17:48:50.293Z,25.20
2018-09-18T17:53:53.585Z,25.00
2018-09-18T17:58:56.955Z,24.90
2018-09-18T18:04:00.281Z,24.80
2018-09-18T18:09:04.890Z,24.70
2018-09-18T18:14:08.165Z,24.60
2018-09-18T18:19:11.705Z,24.60
2018-09-18T18:24:15.751Z,24.50
2018-09-18T18:29:20.357Z,24.30
2018-09-18T18:34:23.965Z,24.00
2018-09-18T18:39:27.645Z,23.80
2018-09-18T18:44:30.946Z,23.70
2018-09-18T18:49:37.363Z,23.60
2018-09-18T18:54:41.225Z,23.40
2018-09-18T18:59:44.690Z,23.40
2018-09-18T19:04:48.142Z,23.30
2018-09-18T19:09:51.482Z,23.40
2018-09-18T19:14:54.999Z,23.20
2018-09-18T19:19:58.634Z,23.20
2018-09-18T19:25:01.895Z,23.20
2018-09-18T19:30:05.717Z,23.10
2018-09-18T19:35:09.275Z,23.00
2018-09-18T19:40:14.797Z,23.10
2018-09-18T19:45:18.199Z,23.10
2018-09-18T19:50:21.825Z,23.00
2018-09-18T19:55:25.084Z,23.00
2018-09-18T20:00:29.240Z,22.90
2018-09-18T20:05:32.736Z,22.90
2018-09-18T20:10:36.277Z,22.70
2018-09-18T20:15:40.321Z,22.50
2018-09-18T20:20:43.760Z,22.30
2018-09-18T20:25:47.080Z,22.40
2018-09-18T20:30:50.416Z,22.30
2018-09-18T23:33:47.105Z,20.80
2018-09-18T23:38:52.137Z,20.90
2018-09-18T23:43:57.019Z,20.90
2018-09-18T23:49:01.924Z,20.90
2018-09-18T23:54:06.932Z,20.90
2018-09-18T23:59:11.803Z,20.90
